sensor_id;sensor_type;location;lat;lon;timestamp;P1;durP1;ratioP1;P2;durP2;ratioP2
52888;SDS011;41413;52.770;6.892;2022-12-11T00:01:15;39.65;;;22.17;;
52888;SDS011;41413;52.770;6.892;2022-12-11T00:03:44;35.40;;;21.58;;
52888;SDS011;41413;52.770;6.892;2022-12-11T00:06:12;31.23;;;20.98;;
52888;SDS011;41413;52.770;6.892;2022-12-11T00:08:40;30.27;;;19.85;;
52888;SDS011;41413;52.770;6.892;2022-12-11T00:11:08;34.58;;;19.90;;
52888;SDS011;41413;52.770;6.892;2022-12-11T00:13:37;33.97;;;22.65;;
52888;SDS011;41413;52.770;6.892;2022-12-11T00:16:03;41.17;;;23.20;;
52888;SDS011;41413;52.770;6.892;2022-12-11T00:18:30;36.75;;;22.27;;
52888;SDS011;41413;52.770;6.892;2022-12-11T00:21:00;35.10;;;21.40;;
52888;SDS011;41413;52.770;6.892;2022-12-11T00:23:33;40.67;;;22.05;;
52888;SDS011;41413;52.770;6.892;2022-12-11T00:26:03;36.78;;;22.17;;
52888;SDS011;41413;52.770;6.892;2022-12-11T00:28:32;29.10;;;18.42;;
52888;SDS011;41413;52.770;6.892;2022-12-11T00:30:58;26.65;;;18.52;;
52888;SDS011;41413;52.770;6.892;2022-12-11T00:33:32;32.10;;;18.92;;
52888;SDS011;41413;52.770;6.892;2022-12-11T00:35:59;30.85;;;19.08;;
52888;SDS011;41413;52.770;6.892;2022-12-11T00:38:26;29.55;;;20.38;;
52888;SDS011;41413;52.770;6.892;2022-12-11T00:40:56;32.08;;;19.45;;
52888;SDS011;41413;52.770;6.892;2022-12-11T00:43:24;37.65;;;22.60;;
52888;SDS011;41413;52.770;6.892;2022-12-11T00:45:51;41.08;;;22.67;;
52888;SDS011;41413;52.770;6.892;2022-12-11T00:48:17;36.85;;;23.67;;
52888;SDS011;41413;52.770;6.892;2022-12-11T00:50:44;32.95;;;20.85;;
52888;SDS011;41413;52.770;6.892;2022-12-11T00:53:11;38.53;;;23.45;;
52888;SDS011;41413;52.770;6.892;2022-12-11T00:55:38;35.33;;;22.13;;
52888;SDS011;41413;52.770;6.892;2022-12-11T00:58:07;38.25;;;24.17;;
52888;SDS011;41413;52.770;6.892;2022-12-11T01:00:35;44.13;;;24.55;;
52888;SDS011;41413;52.770;6.892;2022-12-11T01:03:02;41.42;;;24.05;;
52888;SDS011;41413;52.770;6.892;2022-12-11T01:05:29;33.10;;;21.70;;
52888;SDS011;41413;52.770;6.892;2022-12-11T01:07:56;38.00;;;21.85;;
52888;SDS011;41413;52.770;6.892;2022-12-11T01:10:23;33.85;;;21.33;;
52888;SDS011;41413;52.770;6.892;2022-12-11T01:12:58;37.03;;;21.10;;
52888;SDS011;41413;52.770;6.892;2022-12-11T01:15:33;39.92;;;22.85;;
52888;SDS011;41413;52.770;6.892;2022-12-11T01:18:07;36.38;;;22.13;;
52888;SDS011;41413;52.770;6.892;2022-12-11T01:20:38;39.33;;;22.52;;
52888;SDS011;41413;52.770;6.892;2022-12-11T01:23:05;40.47;;;22.55;;
52888;SDS011;41413;52.770;6.892;2022-12-11T01:25:34;36.47;;;21.38;;
52888;SDS011;41413;52.770;6.892;2022-12-11T01:28:03;38.17;;;22.23;;
52888;SDS011;41413;52.770;6.892;2022-12-11T01:30:31;32.75;;;21.33;;
52888;SDS011;41413;52.770;6.892;2022-12-11T01:32:58;37.53;;;22.33;;
52888;SDS011;41413;52.770;6.892;2022-12-11T01:35:26;35.13;;;22.95;;
52888;SDS011;41413;52.770;6.892;2022-12-11T01:37:53;35.58;;;20.20;;
52888;SDS011;41413;52.770;6.892;2022-12-11T01:40:20;36.38;;;22.33;;
52888;SDS011;41413;52.770;6.892;2022-12-11T01:42:47;33.17;;;21.23;;
52888;SDS011;41413;52.770;6.892;2022-12-11T01:47:49;37.88;;;21.45;;
52888;SDS011;41413;52.770;6.892;2022-12-11T01:50:19;39.28;;;20.65;;
52888;SDS011;41413;52.770;6.892;2022-12-11T01:52:46;38.92;;;21.05;;
52888;SDS011;41413;52.770;6.892;2022-12-11T01:55:14;41.33;;;21.30;;
52888;SDS011;41413;52.770;6.892;2022-12-11T01:57:43;35.28;;;20.60;;
52888;SDS011;41413;52.770;6.892;2022-12-11T02:00:12;31.48;;;20.55;;
52888;SDS011;41413;52.770;6.892;2022-12-11T02:02:39;41.90;;;23.42;;
52888;SDS011;41413;52.770;6.892;2022-12-11T02:05:06;37.60;;;22.13;;
52888;SDS011;41413;52.770;6.892;2022-12-11T02:07:38;33.70;;;21.67;;
52888;SDS011;41413;52.770;6.892;2022-12-11T02:10:12;38.97;;;22.20;;
52888;SDS011;41413;52.770;6.892;2022-12-11T02:16:03;34.38;;;19.92;;
52888;SDS011;41413;52.770;6.892;2022-12-11T02:18:41;37.75;;;20.83;;
52888;SDS011;41413;52.770;6.892;2022-12-11T02:28:57;31.30;;;20.55;;
52888;SDS011;41413;52.770;6.892;2022-12-11T02:37:30;29.90;;;19.00;;
52888;SDS011;41413;52.770;6.892;2022-12-11T02:40:00;29.23;;;18.95;;
52888;SDS011;41413;52.770;6.892;2022-12-11T02:42:30;37.28;;;21.00;;
52888;SDS011;41413;52.770;6.892;2022-12-11T02:44:59;41.35;;;21.77;;
52888;SDS011;41413;52.770;6.892;2022-12-11T02:47:28;34.08;;;21.67;;
52888;SDS011;41413;52.770;6.892;2022-12-11T02:49:57;39.13;;;21.60;;
52888;SDS011;41413;52.770;6.892;2022-12-11T02:52:28;38.35;;;24.58;;
52888;SDS011;41413;52.770;6.892;2022-12-11T02:54:57;37.75;;;21.73;;
52888;SDS011;41413;52.770;6.892;2022-12-11T02:57:30;39.63;;;22.27;;
52888;SDS011;41413;52.770;6.892;2022-12-11T03:00:03;35.63;;;21.90;;
52888;SDS011;41413;52.770;6.892;2022-12-11T03:02:31;43.35;;;24.05;;
52888;SDS011;41413;52.770;6.892;2022-12-11T03:04:58;41.75;;;24.55;;
52888;SDS011;41413;52.770;6.892;2022-12-11T03:07:26;44.60;;;22.88;;
52888;SDS011;41413;52.770;6.892;2022-12-11T03:09:55;38.40;;;23.17;;
52888;SDS011;41413;52.770;6.892;2022-12-11T03:12:23;39.67;;;22.80;;
52888;SDS011;41413;52.770;6.892;2022-12-11T03:15:05;37.42;;;22.15;;
52888;SDS011;41413;52.770;6.892;2022-12-11T03:20:49;33.03;;;19.27;;
52888;SDS011;41413;52.770;6.892;2022-12-11T03:23:38;31.85;;;20.58;;
52888;SDS011;41413;52.770;6.892;2022-12-11T03:26:14;35.78;;;20.90;;
52888;SDS011;41413;52.770;6.892;2022-12-11T03:33:57;35.10;;;20.95;;
52888;SDS011;41413;52.770;6.892;2022-12-11T03:36:32;42.28;;;22.08;;
52888;SDS011;41413;52.770;6.892;2022-12-11T03:39:12;38.08;;;20.77;;
52888;SDS011;41413;52.770;6.892;2022-12-11T03:41:43;40.50;;;26.33;;
52888;SDS011;41413;52.770;6.892;2022-12-11T03:44:11;42.80;;;23.30;;
52888;SDS011;41413;52.770;6.892;2022-12-11T03:46:39;39.85;;;22.65;;
52888;SDS011;41413;52.770;6.892;2022-12-11T03:49:15;41.80;;;23.27;;
52888;SDS011;41413;52.770;6.892;2022-12-11T03:51:44;44.08;;;24.15;;
52888;SDS011;41413;52.770;6.892;2022-12-11T03:54:13;40.67;;;23.23;;
52888;SDS011;41413;52.770;6.892;2022-12-11T03:56:42;49.47;;;26.45;;
52888;SDS011;41413;52.770;6.892;2022-12-11T03:59:10;45.75;;;27.45;;
52888;SDS011;41413;52.770;6.892;2022-12-11T04:01:37;43.00;;;24.05;;
52888;SDS011;41413;52.770;6.892;2022-12-11T04:04:04;41.20;;;25.30;;
52888;SDS011;41413;52.770;6.892;2022-12-11T04:06:31;49.38;;;25.10;;
52888;SDS011;41413;52.770;6.892;2022-12-11T04:08:57;54.50;;;26.73;;
52888;SDS011;41413;52.770;6.892;2022-12-11T04:11:24;51.95;;;26.08;;
52888;SDS011;41413;52.770;6.892;2022-12-11T04:14:04;53.08;;;29.50;;
52888;SDS011;41413;52.770;6.892;2022-12-11T04:16:54;48.17;;;26.90;;
52888;SDS011;41413;52.770;6.892;2022-12-11T04:19:22;57.35;;;28.80;;
52888;SDS011;41413;52.770;6.892;2022-12-11T04:24:40;52.35;;;26.95;;
52888;SDS011;41413;52.770;6.892;2022-12-11T04:27:07;53.13;;;27.20;;
52888;SDS011;41413;52.770;6.892;2022-12-11T04:29:34;51.20;;;26.80;;
52888;SDS011;41413;52.770;6.892;2022-12-11T04:32:01;55.00;;;30.17;;
52888;SDS011;41413;52.770;6.892;2022-12-11T04:34:27;48.42;;;29.38;;
52888;SDS011;41413;52.770;6.892;2022-12-11T04:36:54;49.03;;;27.67;;
52888;SDS011;41413;52.770;6.892;2022-12-11T04:39:21;55.38;;;29.45;;
52888;SDS011;41413;52.770;6.892;2022-12-11T04:41:47;57.92;;;30.10;;
52888;SDS011;41413;52.770;6.892;2022-12-11T04:44:14;54.90;;;31.02;;
52888;SDS011;41413;52.770;6.892;2022-12-11T04:46:41;59.30;;;29.63;;
52888;SDS011;41413;52.770;6.892;2022-12-11T04:49:07;56.00;;;29.33;;
52888;SDS011;41413;52.770;6.892;2022-12-11T04:51:35;51.63;;;29.77;;
52888;SDS011;41413;52.770;6.892;2022-12-11T04:54:01;54.35;;;28.08;;
52888;SDS011;41413;52.770;6.892;2022-12-11T04:56:28;62.95;;;30.98;;
52888;SDS011;41413;52.770;6.892;2022-12-11T04:58:55;53.92;;;29.17;;
52888;SDS011;41413;52.770;6.892;2022-12-11T05:01:21;50.83;;;28.92;;
52888;SDS011;41413;52.770;6.892;2022-12-11T05:03:48;53.35;;;30.45;;
52888;SDS011;41413;52.770;6.892;2022-12-11T05:06:16;49.00;;;27.50;;
52888;SDS011;41413;52.770;6.892;2022-12-11T05:08:42;43.13;;;25.95;;
52888;SDS011;41413;52.770;6.892;2022-12-11T05:11:11;42.80;;;26.50;;
52888;SDS011;41413;52.770;6.892;2022-12-11T05:13:40;53.38;;;25.35;;
52888;SDS011;41413;52.770;6.892;2022-12-11T05:16:07;52.45;;;27.13;;
52888;SDS011;41413;52.770;6.892;2022-12-11T05:18:35;53.10;;;26.02;;
52888;SDS011;41413;52.770;6.892;2022-12-11T05:21:03;46.35;;;25.92;;
52888;SDS011;41413;52.770;6.892;2022-12-11T05:23:33;48.80;;;24.95;;
52888;SDS011;41413;52.770;6.892;2022-12-11T05:26:01;51.38;;;26.50;;
52888;SDS011;41413;52.770;6.892;2022-12-11T05:28:38;49.75;;;26.77;;
52888;SDS011;41413;52.770;6.892;2022-12-11T05:31:17;40.38;;;24.85;;
52888;SDS011;41413;52.770;6.892;2022-12-11T05:33:45;56.85;;;27.20;;
52888;SDS011;41413;52.770;6.892;2022-12-11T05:36:15;45.92;;;25.83;;
52888;SDS011;41413;52.770;6.892;2022-12-11T05:38:44;50.05;;;27.63;;
52888;SDS011;41413;52.770;6.892;2022-12-11T05:41:12;43.90;;;26.67;;
52888;SDS011;41413;52.770;6.892;2022-12-11T05:43:41;46.55;;;26.15;;
52888;SDS011;41413;52.770;6.892;2022-12-11T05:46:12;47.72;;;24.27;;
52888;SDS011;41413;52.770;6.892;2022-12-11T05:48:54;42.53;;;25.95;;
52888;SDS011;41413;52.770;6.892;2022-12-11T05:51:22;45.13;;;26.15;;
52888;SDS011;41413;52.770;6.892;2022-12-11T05:53:50;55.92;;;28.42;;
52888;SDS011;41413;52.770;6.892;2022-12-11T05:56:21;53.45;;;26.35;;
52888;SDS011;41413;52.770;6.892;2022-12-11T05:58:52;45.20;;;24.13;;
52888;SDS011;41413;52.770;6.892;2022-12-11T06:01:29;38.97;;;25.88;;
52888;SDS011;41413;52.770;6.892;2022-12-11T06:04:00;51.67;;;27.58;;
52888;SDS011;41413;52.770;6.892;2022-12-11T06:06:27;58.55;;;28.45;;
52888;SDS011;41413;52.770;6.892;2022-12-11T06:08:55;57.88;;;35.65;;
52888;SDS011;41413;52.770;6.892;2022-12-11T06:11:23;54.13;;;26.88;;
52888;SDS011;41413;52.770;6.892;2022-12-11T06:13:51;50.78;;;27.02;;
52888;SDS011;41413;52.770;6.892;2022-12-11T06:16:19;51.45;;;28.20;;
52888;SDS011;41413;52.770;6.892;2022-12-11T06:18:46;41.65;;;25.83;;
52888;SDS011;41413;52.770;6.892;2022-12-11T06:24:10;52.92;;;27.90;;
52888;SDS011;41413;52.770;6.892;2022-12-11T06:26:37;51.38;;;27.58;;
52888;SDS011;41413;52.770;6.892;2022-12-11T06:29:04;45.55;;;27.65;;
52888;SDS011;41413;52.770;6.892;2022-12-11T06:31:37;51.05;;;26.67;;
52888;SDS011;41413;52.770;6.892;2022-12-11T06:34:04;47.38;;;25.83;;
52888;SDS011;41413;52.770;6.892;2022-12-11T06:36:31;52.88;;;28.70;;
52888;SDS011;41413;52.770;6.892;2022-12-11T06:38:58;45.15;;;29.08;;
52888;SDS011;41413;52.770;6.892;2022-12-11T06:41:25;52.63;;;28.92;;
52888;SDS011;41413;52.770;6.892;2022-12-11T06:43:51;46.80;;;27.48;;
52888;SDS011;41413;52.770;6.892;2022-12-11T06:46:18;50.70;;;27.80;;
52888;SDS011;41413;52.770;6.892;2022-12-11T06:48:46;47.65;;;29.50;;
52888;SDS011;41413;52.770;6.892;2022-12-11T06:51:15;47.05;;;27.45;;
52888;SDS011;41413;52.770;6.892;2022-12-11T06:53:52;51.17;;;27.17;;
52888;SDS011;41413;52.770;6.892;2022-12-11T06:56:21;52.13;;;29.23;;
52888;SDS011;41413;52.770;6.892;2022-12-11T06:58:49;43.75;;;26.85;;
52888;SDS011;41413;52.770;6.892;2022-12-11T07:01:21;38.15;;;24.15;;
52888;SDS011;41413;52.770;6.892;2022-12-11T07:03:53;38.10;;;25.92;;
52888;SDS011;41413;52.770;6.892;2022-12-11T07:06:24;46.75;;;24.48;;
52888;SDS011;41413;52.770;6.892;2022-12-11T07:08:51;46.72;;;26.10;;
52888;SDS011;41413;52.770;6.892;2022-12-11T07:11:18;42.10;;;25.60;;
52888;SDS011;41413;52.770;6.892;2022-12-11T07:13:46;46.55;;;23.85;;
52888;SDS011;41413;52.770;6.892;2022-12-11T07:16:13;48.15;;;24.83;;
52888;SDS011;41413;52.770;6.892;2022-12-11T07:18:45;57.50;;;29.02;;
52888;SDS011;41413;52.770;6.892;2022-12-11T07:21:14;36.72;;;24.95;;
52888;SDS011;41413;52.770;6.892;2022-12-11T07:23:41;43.05;;;25.13;;
52888;SDS011;41413;52.770;6.892;2022-12-11T07:26:09;40.05;;;22.52;;
52888;SDS011;41413;52.770;6.892;2022-12-11T07:28:37;44.30;;;25.50;;
52888;SDS011;41413;52.770;6.892;2022-12-11T07:31:08;41.88;;;25.30;;
52888;SDS011;41413;52.770;6.892;2022-12-11T07:33:38;38.85;;;22.55;;
52888;SDS011;41413;52.770;6.892;2022-12-11T07:36:05;44.30;;;23.80;;
52888;SDS011;41413;52.770;6.892;2022-12-11T07:38:34;39.35;;;24.73;;
52888;SDS011;41413;52.770;6.892;2022-12-11T07:41:02;40.35;;;24.33;;
52888;SDS011;41413;52.770;6.892;2022-12-11T07:43:33;47.75;;;26.17;;
52888;SDS011;41413;52.770;6.892;2022-12-11T07:46:01;48.88;;;29.17;;
52888;SDS011;41413;52.770;6.892;2022-12-11T07:48:29;48.90;;;27.33;;
52888;SDS011;41413;52.770;6.892;2022-12-11T07:51:06;42.92;;;26.88;;
52888;SDS011;41413;52.770;6.892;2022-12-11T07:53:34;47.67;;;25.33;;
52888;SDS011;41413;52.770;6.892;2022-12-11T07:56:01;49.20;;;27.75;;
52888;SDS011;41413;52.770;6.892;2022-12-11T07:58:28;46.97;;;26.30;;
52888;SDS011;41413;52.770;6.892;2022-12-11T08:00:55;48.22;;;26.05;;
52888;SDS011;41413;52.770;6.892;2022-12-11T08:03:23;49.65;;;25.73;;
52888;SDS011;41413;52.770;6.892;2022-12-11T08:05:50;43.78;;;24.48;;
52888;SDS011;41413;52.770;6.892;2022-12-11T08:08:17;39.30;;;24.27;;
52888;SDS011;41413;52.770;6.892;2022-12-11T08:10:45;47.15;;;29.58;;
52888;SDS011;41413;52.770;6.892;2022-12-11T08:13:11;44.63;;;24.92;;
52888;SDS011;41413;52.770;6.892;2022-12-11T08:15:38;49.20;;;26.27;;
52888;SDS011;41413;52.770;6.892;2022-12-11T08:18:05;44.65;;;26.00;;
52888;SDS011;41413;52.770;6.892;2022-12-11T08:20:31;43.45;;;25.13;;
52888;SDS011;41413;52.770;6.892;2022-12-11T08:22:58;45.72;;;26.40;;
52888;SDS011;41413;52.770;6.892;2022-12-11T08:25:25;40.78;;;26.70;;
52888;SDS011;41413;52.770;6.892;2022-12-11T08:27:52;41.20;;;23.98;;
52888;SDS011;41413;52.770;6.892;2022-12-11T08:30:18;42.30;;;26.67;;
52888;SDS011;41413;52.770;6.892;2022-12-11T08:32:45;38.30;;;23.95;;
52888;SDS011;41413;52.770;6.892;2022-12-11T08:35:12;41.60;;;23.13;;
52888;SDS011;41413;52.770;6.892;2022-12-11T08:37:38;45.33;;;27.20;;
52888;SDS011;41413;52.770;6.892;2022-12-11T08:40:05;52.58;;;26.73;;
52888;SDS011;41413;52.770;6.892;2022-12-11T08:42:33;41.63;;;24.10;;
52888;SDS011;41413;52.770;6.892;2022-12-11T08:45:00;48.03;;;25.83;;
52888;SDS011;41413;52.770;6.892;2022-12-11T08:47:26;50.35;;;27.42;;
52888;SDS011;41413;52.770;6.892;2022-12-11T08:49:53;46.63;;;27.48;;
52888;SDS011;41413;52.770;6.892;2022-12-11T08:52:20;45.70;;;26.02;;
52888;SDS011;41413;52.770;6.892;2022-12-11T08:54:46;43.50;;;24.67;;
52888;SDS011;41413;52.770;6.892;2022-12-11T08:57:13;45.53;;;25.73;;
52888;SDS011;41413;52.770;6.892;2022-12-11T08:59:40;55.97;;;32.35;;
52888;SDS011;41413;52.770;6.892;2022-12-11T09:02:09;42.80;;;25.77;;
52888;SDS011;41413;52.770;6.892;2022-12-11T09:04:37;47.63;;;26.35;;
52888;SDS011;41413;52.770;6.892;2022-12-11T09:07:04;51.35;;;26.15;;
52888;SDS011;41413;52.770;6.892;2022-12-11T09:09:31;41.65;;;26.33;;
52888;SDS011;41413;52.770;6.892;2022-12-11T09:11:57;41.15;;;24.40;;
52888;SDS011;41413;52.770;6.892;2022-12-11T09:14:26;41.40;;;25.80;;
52888;SDS011;41413;52.770;6.892;2022-12-11T09:16:53;40.13;;;24.75;;
52888;SDS011;41413;52.770;6.892;2022-12-11T09:19:19;37.92;;;24.10;;
52888;SDS011;41413;52.770;6.892;2022-12-11T09:21:46;41.30;;;24.80;;
52888;SDS011;41413;52.770;6.892;2022-12-11T09:24:13;44.40;;;25.90;;
52888;SDS011;41413;52.770;6.892;2022-12-11T09:26:40;47.72;;;27.70;;
52888;SDS011;41413;52.770;6.892;2022-12-11T09:29:07;47.28;;;25.80;;
52888;SDS011;41413;52.770;6.892;2022-12-11T09:31:36;40.88;;;24.35;;
52888;SDS011;41413;52.770;6.892;2022-12-11T09:34:04;39.80;;;23.73;;
52888;SDS011;41413;52.770;6.892;2022-12-11T09:36:32;46.58;;;24.38;;
52888;SDS011;41413;52.770;6.892;2022-12-11T09:39:00;49.38;;;27.25;;
52888;SDS011;41413;52.770;6.892;2022-12-11T09:44:23;45.70;;;23.75;;
52888;SDS011;41413;52.770;6.892;2022-12-11T09:52:55;40.50;;;26.20;;
52888;SDS011;41413;52.770;6.892;2022-12-11T09:55:52;41.30;;;25.70;;
52888;SDS011;41413;52.770;6.892;2022-12-11T09:58:49;46.53;;;26.65;;
52888;SDS011;41413;52.770;6.892;2022-12-11T10:04:23;52.63;;;25.85;;
52888;SDS011;41413;52.770;6.892;2022-12-11T10:07:13;41.22;;;28.70;;
52888;SDS011;41413;52.770;6.892;2022-12-11T10:15:29;38.70;;;27.77;;
52888;SDS011;41413;52.770;6.892;2022-12-11T10:18:04;45.55;;;24.58;;
52888;SDS011;41413;52.770;6.892;2022-12-11T10:20:37;42.22;;;27.02;;
52888;SDS011;41413;52.770;6.892;2022-12-11T10:23:06;42.90;;;26.58;;
52888;SDS011;41413;52.770;6.892;2022-12-11T10:25:36;42.65;;;25.65;;
52888;SDS011;41413;52.770;6.892;2022-12-11T10:28:16;40.50;;;26.38;;
52888;SDS011;41413;52.770;6.892;2022-12-11T10:30:49;42.22;;;24.27;;
52888;SDS011;41413;52.770;6.892;2022-12-11T10:36:21;43.30;;;25.75;;
52888;SDS011;41413;52.770;6.892;2022-12-11T10:38:55;36.13;;;24.38;;
52888;SDS011;41413;52.770;6.892;2022-12-11T10:41:23;51.15;;;27.77;;
52888;SDS011;41413;52.770;6.892;2022-12-11T10:44:27;39.25;;;24.30;;
52888;SDS011;41413;52.770;6.892;2022-12-11T10:47:04;40.92;;;24.02;;
52888;SDS011;41413;52.770;6.892;2022-12-11T10:49:32;34.47;;;23.50;;
52888;SDS011;41413;52.770;6.892;2022-12-11T10:52:01;38.10;;;25.02;;
52888;SDS011;41413;52.770;6.892;2022-12-11T10:54:39;45.97;;;27.90;;
52888;SDS011;41413;52.770;6.892;2022-12-11T10:57:09;41.97;;;25.17;;
52888;SDS011;41413;52.770;6.892;2022-12-11T11:05:11;44.70;;;26.92;;
52888;SDS011;41413;52.770;6.892;2022-12-11T11:07:42;46.15;;;25.92;;
52888;SDS011;41413;52.770;6.892;2022-12-11T11:10:13;39.03;;;24.45;;
52888;SDS011;41413;52.770;6.892;2022-12-11T11:12:43;42.63;;;25.73;;
52888;SDS011;41413;52.770;6.892;2022-12-11T11:17:51;47.88;;;31.27;;
52888;SDS011;41413;52.770;6.892;2022-12-11T11:20:25;39.05;;;24.30;;
52888;SDS011;41413;52.770;6.892;2022-12-11T11:23:00;43.47;;;24.48;;
52888;SDS011;41413;52.770;6.892;2022-12-11T11:25:35;39.97;;;23.70;;
52888;SDS011;41413;52.770;6.892;2022-12-11T11:28:03;42.78;;;23.38;;
52888;SDS011;41413;52.770;6.892;2022-12-11T11:30:34;37.95;;;23.50;;
52888;SDS011;41413;52.770;6.892;2022-12-11T11:33:17;36.50;;;25.30;;
52888;SDS011;41413;52.770;6.892;2022-12-11T11:38:37;41.75;;;24.50;;
52888;SDS011;41413;52.770;6.892;2022-12-11T11:43:46;36.95;;;23.77;;
52888;SDS011;41413;52.770;6.892;2022-12-11T11:51:42;42.45;;;24.55;;
52888;SDS011;41413;52.770;6.892;2022-12-11T11:54:24;40.85;;;25.05;;
52888;SDS011;41413;52.770;6.892;2022-12-11T11:56:58;38.00;;;26.38;;
52888;SDS011;41413;52.770;6.892;2022-12-11T11:59:31;43.78;;;30.92;;
52888;SDS011;41413;52.770;6.892;2022-12-11T12:02:08;45.42;;;32.15;;
52888;SDS011;41413;52.770;6.892;2022-12-11T12:04:40;36.05;;;23.92;;
52888;SDS011;41413;52.770;6.892;2022-12-11T12:10:00;40.60;;;25.23;;
52888;SDS011;41413;52.770;6.892;2022-12-11T12:15:29;43.15;;;24.05;;
52888;SDS011;41413;52.770;6.892;2022-12-11T12:20:52;41.65;;;27.88;;
52888;SDS011;41413;52.770;6.892;2022-12-11T12:26:41;45.88;;;27.63;;
52888;SDS011;41413;52.770;6.892;2022-12-11T12:29:25;43.53;;;25.27;;
52888;SDS011;41413;52.770;6.892;2022-12-11T12:32:07;42.45;;;26.83;;
52888;SDS011;41413;52.770;6.892;2022-12-11T12:37:20;39.03;;;26.58;;
52888;SDS011;41413;52.770;6.892;2022-12-11T12:40:30;44.60;;;25.38;;
52888;SDS011;41413;52.770;6.892;2022-12-11T12:48:54;49.00;;;26.25;;
52888;SDS011;41413;52.770;6.892;2022-12-11T12:51:24;41.15;;;25.80;;
52888;SDS011;41413;52.770;6.892;2022-12-11T12:53:53;44.15;;;26.90;;
52888;SDS011;41413;52.770;6.892;2022-12-11T12:56:23;45.92;;;28.17;;
52888;SDS011;41413;52.770;6.892;2022-12-11T12:58:52;50.50;;;29.20;;
52888;SDS011;41413;52.770;6.892;2022-12-11T13:01:19;46.17;;;27.45;;
52888;SDS011;41413;52.770;6.892;2022-12-11T13:06:27;45.25;;;26.52;;
52888;SDS011;41413;52.770;6.892;2022-12-11T13:09:15;51.35;;;30.75;;
52888;SDS011;41413;52.770;6.892;2022-12-11T13:11:53;42.28;;;26.60;;
52888;SDS011;41413;52.770;6.892;2022-12-11T13:14:27;37.83;;;23.92;;
52888;SDS011;41413;52.770;6.892;2022-12-11T13:17:04;47.00;;;25.85;;
52888;SDS011;41413;52.770;6.892;2022-12-11T13:19:33;48.85;;;33.40;;
52888;SDS011;41413;52.770;6.892;2022-12-11T13:27:25;44.88;;;27.85;;
52888;SDS011;41413;52.770;6.892;2022-12-11T13:32:41;48.30;;;28.33;;
52888;SDS011;41413;52.770;6.892;2022-12-11T13:35:18;40.63;;;25.38;;
52888;SDS011;41413;52.770;6.892;2022-12-11T13:37:48;48.78;;;28.08;;
52888;SDS011;41413;52.770;6.892;2022-12-11T13:40:21;44.33;;;27.33;;
52888;SDS011;41413;52.770;6.892;2022-12-11T13:45:31;45.30;;;28.05;;
52888;SDS011;41413;52.770;6.892;2022-12-11T13:48:09;43.25;;;33.88;;
52888;SDS011;41413;52.770;6.892;2022-12-11T13:50:53;39.33;;;25.77;;
52888;SDS011;41413;52.770;6.892;2022-12-11T13:53:21;38.38;;;25.90;;
52888;SDS011;41413;52.770;6.892;2022-12-11T13:56:05;41.65;;;26.42;;
52888;SDS011;41413;52.770;6.892;2022-12-11T13:58:33;48.58;;;27.42;;
52888;SDS011;41413;52.770;6.892;2022-12-11T14:01:05;38.40;;;25.52;;
52888;SDS011;41413;52.770;6.892;2022-12-11T14:03:38;38.00;;;25.60;;
52888;SDS011;41413;52.770;6.892;2022-12-11T14:06:10;39.35;;;24.52;;
52888;SDS011;41413;52.770;6.892;2022-12-11T14:08:44;42.65;;;30.85;;
52888;SDS011;41413;52.770;6.892;2022-12-11T14:11:22;42.75;;;23.65;;
52888;SDS011;41413;52.770;6.892;2022-12-11T14:13:53;37.25;;;21.55;;
52888;SDS011;41413;52.770;6.892;2022-12-11T14:16:23;44.97;;;31.30;;
52888;SDS011;41413;52.770;6.892;2022-12-11T14:18:51;47.25;;;33.67;;
52888;SDS011;41413;52.770;6.892;2022-12-11T14:21:23;41.63;;;25.45;;
52888;SDS011;41413;52.770;6.892;2022-12-11T14:23:51;41.80;;;30.65;;
52888;SDS011;41413;52.770;6.892;2022-12-11T14:26:28;49.00;;;29.38;;
52888;SDS011;41413;52.770;6.892;2022-12-11T14:28:55;40.80;;;27.55;;
52888;SDS011;41413;52.770;6.892;2022-12-11T14:34:13;44.00;;;31.73;;
52888;SDS011;41413;52.770;6.892;2022-12-11T14:36:43;46.38;;;29.40;;
52888;SDS011;41413;52.770;6.892;2022-12-11T14:39:16;42.97;;;28.00;;
52888;SDS011;41413;52.770;6.892;2022-12-11T14:42:17;39.25;;;23.83;;
52888;SDS011;41413;52.770;6.892;2022-12-11T14:47:18;46.15;;;26.48;;
52888;SDS011;41413;52.770;6.892;2022-12-11T14:50:15;40.92;;;26.90;;
52888;SDS011;41413;52.770;6.892;2022-12-11T14:52:54;36.03;;;23.63;;
52888;SDS011;41413;52.770;6.892;2022-12-11T14:55:25;42.80;;;25.48;;
52888;SDS011;41413;52.770;6.892;2022-12-11T14:57:56;43.67;;;24.65;;
52888;SDS011;41413;52.770;6.892;2022-12-11T15:00:27;41.03;;;25.70;;
52888;SDS011;41413;52.770;6.892;2022-12-11T15:02:56;37.05;;;26.02;;
52888;SDS011;41413;52.770;6.892;2022-12-11T15:05:24;44.97;;;24.75;;
52888;SDS011;41413;52.770;6.892;2022-12-11T15:07:52;37.83;;;25.38;;
52888;SDS011;41413;52.770;6.892;2022-12-11T15:10:25;35.25;;;23.35;;
52888;SDS011;41413;52.770;6.892;2022-12-11T15:12:57;36.25;;;30.25;;
52888;SDS011;41413;52.770;6.892;2022-12-11T15:15:24;57.65;;;47.50;;
52888;SDS011;41413;52.770;6.892;2022-12-11T15:17:53;41.00;;;33.53;;
52888;SDS011;41413;52.770;6.892;2022-12-11T15:20:21;43.40;;;29.17;;
52888;SDS011;41413;52.770;6.892;2022-12-11T15:22:51;33.20;;;28.65;;
52888;SDS011;41413;52.770;6.892;2022-12-11T15:25:22;40.55;;;22.23;;
52888;SDS011;41413;52.770;6.892;2022-12-11T15:27:55;37.25;;;23.17;;
52888;SDS011;41413;52.770;6.892;2022-12-11T15:30:27;36.17;;;24.15;;
52888;SDS011;41413;52.770;6.892;2022-12-11T15:33:03;35.20;;;22.65;;
52888;SDS011;41413;52.770;6.892;2022-12-11T15:35:51;35.83;;;24.63;;
52888;SDS011;41413;52.770;6.892;2022-12-11T15:38:27;26.75;;;21.48;;
52888;SDS011;41413;52.770;6.892;2022-12-11T15:40:56;31.75;;;23.70;;
52888;SDS011;41413;52.770;6.892;2022-12-11T15:43:23;30.65;;;22.52;;
52888;SDS011;41413;52.770;6.892;2022-12-11T15:45:51;38.72;;;24.42;;
52888;SDS011;41413;52.770;6.892;2022-12-11T15:48:17;33.40;;;25.92;;
52888;SDS011;41413;52.770;6.892;2022-12-11T15:50:44;31.75;;;22.88;;
52888;SDS011;41413;52.770;6.892;2022-12-11T15:53:11;33.05;;;26.95;;
52888;SDS011;41413;52.770;6.892;2022-12-11T15:55:38;31.02;;;21.42;;
52888;SDS011;41413;52.770;6.892;2022-12-11T15:58:06;27.63;;;21.77;;
52888;SDS011;41413;52.770;6.892;2022-12-11T16:00:38;26.15;;;18.40;;
52888;SDS011;41413;52.770;6.892;2022-12-11T16:03:05;25.27;;;18.05;;
52888;SDS011;41413;52.770;6.892;2022-12-11T16:05:32;24.23;;;18.70;;
52888;SDS011;41413;52.770;6.892;2022-12-11T16:07:58;21.85;;;17.67;;
52888;SDS011;41413;52.770;6.892;2022-12-11T16:10:25;26.52;;;22.70;;
52888;SDS011;41413;52.770;6.892;2022-12-11T16:12:52;25.60;;;21.42;;
52888;SDS011;41413;52.770;6.892;2022-12-11T16:15:24;21.95;;;17.17;;
52888;SDS011;41413;52.770;6.892;2022-12-11T16:17:58;30.10;;;20.48;;
52888;SDS011;41413;52.770;6.892;2022-12-11T16:20:26;21.92;;;16.83;;
52888;SDS011;41413;52.770;6.892;2022-12-11T16:22:53;26.83;;;21.08;;
52888;SDS011;41413;52.770;6.892;2022-12-11T16:25:19;24.95;;;17.08;;
52888;SDS011;41413;52.770;6.892;2022-12-11T16:27:46;27.75;;;18.38;;
52888;SDS011;41413;52.770;6.892;2022-12-11T16:30:13;24.08;;;18.60;;
52888;SDS011;41413;52.770;6.892;2022-12-11T16:32:40;24.02;;;16.67;;